createdAt,value
2022-12-22T00:00:03.888Z,4.45
2022-12-22T00:01:04.089Z,4.2
2022-12-22T00:02:04.022Z,3.39
2022-12-22T00:03:04.646Z,2.96
2022-12-22T00:04:03.883Z,4.16
2022-12-22T00:05:04.299Z,2.32
2022-12-22T00:06:04.329Z,4.55
2022-12-22T00:07:03.937Z,3.02
2022-12-22T00:08:04.443Z,4.79
2022-12-22T00:09:07.789Z,4.38
2022-12-22T00:10:03.549Z,4.26
2022-12-22T00:11:04.107Z,2.94
2022-12-22T00:12:03.504Z,5.42
2022-12-22T00:13:04.071Z,2.84
2022-12-22T00:14:04.354Z,3
2022-12-22T00:15:03.834Z,3.89
2022-12-22T00:16:03.760Z,3.88
2022-12-22T00:18:03.760Z,1.9
2022-12-22T00:20:03.862Z,4.67
2022-12-22T00:21:04.444Z,2.69
2022-12-22T00:22:03.501Z,2.96
2022-12-22T00:25:03.950Z,3.19
2022-12-22T00:26:03.660Z,1.77
2022-12-22T00:27:04.192Z,3.68
2022-12-22T00:28:04.245Z,4.62
2022-12-22T00:29:03.787Z,4.62
2022-12-22T00:31:04.254Z,2.66
2022-12-22T00:32:04.498Z,2.1
2022-12-22T00:33:03.891Z,2.43
2022-12-22T00:34:04.381Z,2.91
2022-12-22T00:35:03.614Z,1.81
2022-12-22T00:36:04.122Z,3.78
2022-12-22T00:37:04.178Z,4.04
2022-12-22T00:38:03.705Z,3.81
2022-12-22T00:39:03.590Z,2.53
2022-12-22T00:40:02.432Z,3.58
2022-12-22T00:41:03.978Z,2.28
2022-12-22T00:43:04.227Z,2.55
2022-12-22T00:45:03.819Z,2.66
2022-12-22T00:46:03.561Z,2.66
2022-12-22T00:47:03.889Z,2.42
2022-12-22T00:48:03.986Z,2.42
2022-12-22T00:49:04.325Z,3.61
2022-12-22T00:50:03.840Z,3.61
2022-12-22T00:51:04.373Z,3.61
2022-12-22T00:52:04.097Z,2.4
2022-12-22T00:53:04.277Z,2.98
2022-12-22T00:54:04.156Z,2.98
2022-12-22T00:55:03.557Z,1.74
2022-12-22T00:56:04.107Z,2.29
2022-12-22T00:57:03.866Z,3.96
2022-12-22T00:58:04.165Z,2.09
2022-12-22T00:59:03.705Z,3.51
2022-12-22T01:00:04.173Z,3.62
2022-12-22T01:01:04.305Z,3.47
2022-12-22T01:10:03.161Z,3.19
2022-12-22T01:11:03.573Z,3.19
2022-12-22T01:18:04.525Z,2.81
2022-12-22T01:19:03.718Z,2.28
2022-12-22T01:21:03.725Z,3.86
2022-12-22T01:26:04.159Z,2.38
2022-12-22T01:27:03.757Z,3.66
2022-12-22T01:28:04.285Z,2.95
2022-12-22T01:29:04.020Z,4.42
2022-12-22T01:30:03.616Z,4.42
2022-12-22T01:34:04.016Z,2.16
2022-12-22T01:35:03.215Z,3.38
2022-12-22T01:36:03.685Z,2.71
2022-12-22T01:37:04.142Z,2.16
2022-12-22T01:38:04.337Z,2.48
2022-12-22T01:39:03.881Z,2.73
2022-12-22T01:41:03.431Z,3.81
2022-12-22T01:42:04.319Z,3.81
2022-12-22T01:43:03.983Z,3.29
2022-12-22T01:46:04.304Z,2.36
2022-12-22T01:47:03.607Z,2.7
2022-12-22T01:49:04.486Z,4.36
2022-12-22T01:50:04.221Z,3.09
2022-12-22T01:54:04.200Z,3.39
2022-12-22T01:55:03.511Z,4.44
2022-12-22T01:56:03.804Z,4.44
2022-12-22T01:57:04.396Z,2.89
2022-12-22T01:58:03.414Z,3.4
2022-12-22T01:59:04.101Z,2.21
2022-12-22T02:00:03.754Z,3.94
2022-12-22T02:01:04.433Z,3.38
2022-12-22T02:06:02.880Z,2.69
2022-12-22T02:09:04.229Z,2.87
2022-12-22T02:10:03.624Z,2.87
2022-12-22T02:11:03.868Z,3.09
2022-12-22T02:14:03.561Z,4.28
2022-12-22T02:15:03.975Z,3.59
2022-12-22T02:16:03.964Z,2.75
2022-12-22T02:17:04.433Z,2.75
2022-12-22T02:18:03.982Z,2.59
2022-12-22T02:19:03.552Z,2.59
2022-12-22T02:20:04.284Z,2.99
2022-12-22T02:21:03.506Z,3.19
2022-12-22T02:22:04.084Z,2.71
2022-12-22T02:23:04.088Z,3.41
2022-12-22T02:24:03.614Z,2.78
2022-12-22T02:25:03.880Z,2.54
2022-12-22T02:26:04.360Z,3.47
2022-12-22T02:27:03.926Z,3.66
2022-12-22T02:31:03.877Z,3.54
2022-12-22T02:32:03.939Z,2.28
2022-12-22T02:34:04.042Z,2.45
2022-12-22T02:35:03.604Z,3.38
2022-12-22T02:36:04.375Z,1.8
2022-12-22T02:37:03.820Z,3.44
2022-12-22T02:39:03.826Z,2.59
2022-12-22T02:42:03.668Z,2.45
2022-12-22T02:43:04.023Z,2.88
2022-12-22T02:44:04.210Z,3.15
2022-12-22T02:45:03.624Z,3.18
2022-12-22T02:46:04.329Z,2.87
2022-12-22T02:47:03.146Z,3.79
2022-12-22T02:48:04.039Z,2.38
2022-12-22T02:49:03.095Z,2.95
2022-12-22T02:50:04.421Z,2.23
2022-12-22T02:51:03.663Z,2.2
2022-12-22T02:52:03.593Z,2.91
2022-12-22T02:53:04.367Z,2.25
2022-12-22T02:54:03.788Z,1.91
2022-12-22T02:55:04.390Z,2.38
2022-12-22T02:56:04.089Z,1.7
2022-12-22T02:57:03.748Z,2.82
2022-12-22T02:58:03.217Z,3.21
2022-12-22T02:59:03.630Z,3.24
2022-12-22T03:00:04.234Z,3.29
2022-12-22T03:01:04.062Z,2.12
2022-12-22T03:02:04.490Z,3.35
2022-12-22T03:03:04.341Z,2.88
2022-12-22T03:04:03.576Z,2.31
2022-12-22T03:05:04.293Z,3.49
2022-12-22T03:06:04.014Z,2.22
2022-12-22T03:07:03.550Z,3.98
2022-12-22T03:08:10.352Z,2.12
2022-12-22T03:09:03.529Z,3.2
2022-12-22T03:10:04.449Z,3.91
2022-12-22T03:11:03.407Z,5.14
2022-12-22T03:12:03.806Z,2.88
2022-12-22T03:13:04.086Z,4.08
2022-12-22T03:14:03.434Z,2.53
2022-12-22T03:15:04.166Z,3.03
2022-12-22T03:16:04.435Z,3.68
2022-12-22T03:17:04.173Z,2.26
2022-12-22T03:18:04.427Z,3.24
2022-12-22T03:19:04.226Z,2.73
2022-12-22T03:20:03.590Z,2.73
2022-12-22T03:21:04.540Z,3.14
2022-12-22T03:22:03.205Z,3.59
2022-12-22T03:23:03.835Z,2.47
2022-12-22T03:24:03.794Z,3.12
2022-12-22T03:25:03.849Z,2.55
2022-12-22T03:26:03.772Z,1.75
2022-12-22T03:27:03.705Z,2.75
2022-12-22T03:28:03.922Z,3.15
2022-12-22T03:29:03.819Z,3.08
2022-12-22T03:30:04.288Z,3.34
2022-12-22T03:31:03.644Z,2.52
2022-12-22T03:32:03.566Z,2.72
2022-12-22T03:33:04.058Z,4.73
2022-12-22T03:34:03.601Z,3.66
2022-12-22T03:35:04.156Z,2.25
2022-12-22T03:36:03.724Z,2.1
2022-12-22T03:37:04.265Z,1.88
2022-12-22T03:38:04.164Z,2.06
2022-12-22T03:39:03.757Z,2.53
2022-12-22T03:40:04.365Z,2.73
2022-12-22T03:41:04.160Z,2.38
2022-12-22T03:42:03.685Z,2.98
2022-12-22T03:43:03.498Z,2.63
2022-12-22T03:44:04.139Z,2.71
2022-12-22T03:45:04.101Z,2.52
2022-12-22T03:46:03.711Z,3.76
2022-12-22T03:47:04.346Z,2.94
2022-12-22T03:48:03.448Z,1.84
2022-12-22T03:49:04.140Z,2.94
2022-12-22T03:50:03.948Z,3.18
2022-12-22T03:51:04.013Z,2.28
2022-12-22T03:52:04.059Z,3.06
2022-12-22T03:53:03.724Z,3.06
2022-12-22T03:54:04.213Z,2.44
2022-12-22T03:55:03.728Z,3.2
2022-12-22T03:56:09.868Z,2.41
2022-12-22T03:57:03.446Z,1.75
2022-12-22T03:58:04.183Z,3.8
2022-12-22T03:59:03.641Z,2.96
2022-12-22T04:00:04.107Z,2.28
2022-12-22T04:01:02.745Z,2.15
2022-12-22T04:02:04.591Z,3.31
2022-12-22T04:03:04.609Z,3.25
2022-12-22T04:04:04.544Z,2.01
2022-12-22T04:05:04.052Z,2.74
2022-12-22T04:06:03.365Z,2.5
2022-12-22T04:07:03.983Z,4.26
2022-12-22T04:08:03.531Z,2.01
2022-12-22T04:09:04.124Z,2.29
2022-12-22T04:10:03.801Z,2.82
2022-12-22T04:11:04.282Z,2.87
2022-12-22T04:12:03.805Z,2.87
2022-12-22T04:13:04.039Z,2.65
2022-12-22T04:14:04.343Z,2.41
2022-12-22T04:15:04.268Z,2.52
2022-12-22T04:16:04.130Z,3.11
2022-12-22T04:17:04.244Z,1.78
2022-12-22T04:18:03.877Z,4.59
2022-12-22T04:19:04.333Z,2.78
2022-12-22T04:20:03.785Z,2.62
2022-12-22T04:21:04.264Z,3.2
2022-12-22T04:22:03.911Z,2.38
2022-12-22T04:23:03.810Z,2.32
2022-12-22T04:24:03.644Z,2.68
2022-12-22T04:25:03.949Z,2.86
2022-12-22T04:26:03.603Z,4.29
2022-12-22T04:27:03.419Z,3.09
2022-12-22T04:28:04.342Z,5.34
2022-12-22T04:29:03.573Z,3.86
2022-12-22T04:30:04.048Z,3.44
2022-12-22T04:31:04.480Z,3.56
2022-12-22T04:32:04.055Z,3.63
2022-12-22T04:33:04.163Z,3.16
2022-12-22T04:34:04.239Z,4.26
2022-12-22T04:35:03.672Z,4.68
2022-12-22T04:36:04.217Z,3.19
2022-12-22T04:37:17.379Z,4.13
2022-12-22T04:38:03.556Z,3.46
2022-12-22T04:39:04.243Z,4.52
2022-12-22T04:40:03.903Z,2.86
2022-12-22T04:41:04.376Z,3.79
2022-12-22T04:42:03.785Z,2.42
2022-12-22T04:43:04.348Z,2.61
2022-12-22T04:44:04.255Z,2.92
2022-12-22T04:45:03.808Z,2.59
2022-12-22T04:46:04.262Z,5
2022-12-22T04:47:04.323Z,4.26
2022-12-22T04:48:04.345Z,2.57
2022-12-22T04:49:03.571Z,2.15
2022-12-22T04:50:04.257Z,2.98
2022-12-22T04:51:03.541Z,3.79
2022-12-22T04:52:03.946Z,3.52
2022-12-22T04:53:03.925Z,4.98
2022-12-22T04:54:03.622Z,4.4
2022-12-22T04:55:04.146Z,3.62
2022-12-22T04:56:03.585Z,3.31
2022-12-22T04:57:03.604Z,3.59
2022-12-22T04:58:02.687Z,3.09
2022-12-22T04:59:04.275Z,2.09
2022-12-22T05:00:03.994Z,2.49
2022-12-22T05:01:04.536Z,4.03
2022-12-22T05:02:04.199Z,4.05
2022-12-22T05:03:03.897Z,4.84
2022-12-22T05:04:04.374Z,4.84
2022-12-22T05:05:03.912Z,3.25
2022-12-22T05:06:04.498Z,1.39
2022-12-22T05:07:03.984Z,3.95
2022-12-22T05:08:03.757Z,2.86
2022-12-22T05:09:04.197Z,2.3
2022-12-22T05:10:03.674Z,2.48
2022-12-22T05:11:04.049Z,3.06
2022-12-22T05:12:03.796Z,2.56
2022-12-22T05:13:03.738Z,2.91
2022-12-22T05:14:09.306Z,2.2
2022-12-22T05:15:03.999Z,4.11
2022-12-22T05:16:03.902Z,3.13
2022-12-22T05:17:04.109Z,3.05
2022-12-22T05:18:04.474Z,2.58
2022-12-22T05:19:04.143Z,3.52
2022-12-22T05:20:03.645Z,3.5
2022-12-22T05:21:03.609Z,2.6
2022-12-22T05:22:04.207Z,2.15
2022-12-22T05:23:02.416Z,1.96
2022-12-22T05:24:03.820Z,5.08
2022-12-22T05:25:04.079Z,2.62
2022-12-22T05:26:03.625Z,2.76
2022-12-22T05:27:03.570Z,2.46
2022-12-22T05:28:03.751Z,1.86
2022-12-22T05:29:04.319Z,2.72
2022-12-22T05:30:03.733Z,2.22
2022-12-22T05:31:03.681Z,2.6
2022-12-22T05:32:03.768Z,3.08
2022-12-22T05:33:04.305Z,2.66
2022-12-22T05:34:04.320Z,2.43
2022-12-22T05:35:03.178Z,2.66
2022-12-22T05:36:03.875Z,3.09
2022-12-22T05:37:03.845Z,4.18
2022-12-22T05:38:04.128Z,2.7
2022-12-22T05:39:03.854Z,2.89
2022-12-22T05:40:03.610Z,3.03
2022-12-22T05:41:06.695Z,3.42
2022-12-22T05:42:04.384Z,3.28
2022-12-22T05:43:03.913Z,3.86
2022-12-22T05:44:03.531Z,4.25
2022-12-22T05:45:04.247Z,2.86
2022-12-22T05:46:04.267Z,3.23
2022-12-22T05:47:03.641Z,3.36
2022-12-22T05:48:03.182Z,2.99
2022-12-22T05:49:03.605Z,3.69
2022-12-22T05:50:03.735Z,2.96
2022-12-22T05:51:03.969Z,3.08
2022-12-22T05:52:04.034Z,3.14
2022-12-22T05:53:03.536Z,3.14
2022-12-22T05:54:04.044Z,1.99
2022-12-22T05:55:03.603Z,1.99
2022-12-22T05:56:04.164Z,2.77
2022-12-22T05:57:03.708Z,2.89
2022-12-22T05:58:04.246Z,2.89
2022-12-22T05:59:03.657Z,2.84
2022-12-22T06:00:04.277Z,2.96
2022-12-22T06:01:03.340Z,3.35
2022-12-22T06:02:04.089Z,2.65
2022-12-22T06:03:04.369Z,4.49
2022-12-22T06:04:04.488Z,3.51
2022-12-22T06:05:04.345Z,2.95
2022-12-22T06:06:03.951Z,3.11
2022-12-22T06:07:04.507Z,2.84
2022-12-22T06:08:03.974Z,3.26
2022-12-22T06:09:03.482Z,3.55
2022-12-22T06:10:12.896Z,3.14
2022-12-22T06:11:03.478Z,2.88
2022-12-22T06:12:04.099Z,2.96
2022-12-22T06:13:03.776Z,3.68
2022-12-22T06:14:04.208Z,2.43
2022-12-22T06:15:04.266Z,2.93
2022-12-22T06:16:04.205Z,2.48
2022-12-22T06:17:03.559Z,2.29
2022-12-22T06:18:04.103Z,3.91
2022-12-22T06:19:04.278Z,3.42
2022-12-22T06:20:03.937Z,1.55
2022-12-22T06:21:03.777Z,3.75
2022-12-22T06:22:04.267Z,2.06
2022-12-22T06:23:03.853Z,1.83
2022-12-22T06:24:04.017Z,3.24
2022-12-22T06:25:03.457Z,3.69
2022-12-22T06:26:04.178Z,2.55
2022-12-22T06:27:02.989Z,2.74
2022-12-22T06:28:04.382Z,2.4
2022-12-22T06:29:03.613Z,2.44
2022-12-22T06:30:03.664Z,2.3
2022-12-22T06:31:04.418Z,2.05
2022-12-22T06:32:03.694Z,3.55
2022-12-22T06:33:04.047Z,3.38
2022-12-22T06:34:03.982Z,3.04
2022-12-22T06:35:03.449Z,2.06
2022-12-22T06:36:03.991Z,2.99
2022-12-22T06:37:03.450Z,2.29
2022-12-22T06:38:04.094Z,1.68
2022-12-22T06:39:03.350Z,2.62
2022-12-22T06:40:04.140Z,1.98
2022-12-22T06:41:04.253Z,3.18
2022-12-22T06:42:03.859Z,1.85
2022-12-22T06:43:10.842Z,1.85
2022-12-22T06:44:03.527Z,1.42
2022-12-22T06:45:04.279Z,1.92
2022-12-22T06:46:04.302Z,1.72
2022-12-22T06:47:03.658Z,1.34
2022-12-22T06:48:04.113Z,1.39
2022-12-22T06:49:03.634Z,1.1
2022-12-22T06:50:04.155Z,2.11
2022-12-22T06:51:03.520Z,1.37
2022-12-22T06:52:04.060Z,2.55
2022-12-22T06:53:03.536Z,1.11
2022-12-22T06:54:04.442Z,1.15
2022-12-22T06:55:03.891Z,1.14
2022-12-22T06:56:04.424Z,1.92
2022-12-22T06:57:03.926Z,0.96
2022-12-22T06:58:03.913Z,1.83
2022-12-22T06:59:03.439Z,0.93
2022-12-22T07:00:04.301Z,1.04
2022-12-22T07:01:03.920Z,1.14
2022-12-22T07:02:04.767Z,1.33
2022-12-22T07:03:04.330Z,1.85
2022-12-22T07:04:04.257Z,0.79
2022-12-22T07:05:02.567Z,1.22
2022-12-22T07:06:03.969Z,1.37
2022-12-22T07:07:03.694Z,2.29
2022-12-22T07:08:10.558Z,1.58
2022-12-22T07:09:03.815Z,1.4
2022-12-22T07:10:04.401Z,1.7
2022-12-22T07:11:04.427Z,1.27
2022-12-22T07:12:03.903Z,2.18
2022-12-22T07:13:04.310Z,1.04
2022-12-22T07:14:03.864Z,1.7
2022-12-22T07:15:04.133Z,1.82
2022-12-22T07:16:04.729Z,0.74
2022-12-22T07:17:03.859Z,1.24
2022-12-22T07:18:04.396Z,1.31
2022-12-22T07:19:04.006Z,1.28
2022-12-22T07:20:03.520Z,1.39
2022-12-22T07:21:04.088Z,1.47
2022-12-22T07:22:04.169Z,1.59
2022-12-22T07:23:03.792Z,1.59
2022-12-22T07:24:04.021Z,1.45
2022-12-22T07:25:03.686Z,1.34
2022-12-22T07:26:04.120Z,0.98
2022-12-22T07:27:03.590Z,0.81
2022-12-22T07:28:02.927Z,1.95
2022-12-22T07:29:04.416Z,1.45
2022-12-22T07:30:03.399Z,1.35
2022-12-22T07:31:03.689Z,1.93
2022-12-22T07:32:03.474Z,1.04
2022-12-22T07:33:04.253Z,1.04
2022-12-22T07:34:03.719Z,1.46
2022-12-22T07:35:08.131Z,1.46
2022-12-22T07:36:04.008Z,1.53
2022-12-22T07:37:04.453Z,0.96
2022-12-22T07:38:03.964Z,0.96
2022-12-22T07:39:04.495Z,0.9
2022-12-22T07:40:03.912Z,0.88
2022-12-22T07:41:07.055Z,1.16
2022-12-22T07:42:02.846Z,2.09
2022-12-22T07:43:04.388Z,1.41
2022-12-22T07:44:03.893Z,1.31
2022-12-22T07:45:03.835Z,1.36
2022-12-22T07:46:03.922Z,1.71
2022-12-22T07:47:04.253Z,1.62
2022-12-22T07:48:03.590Z,1.29
2022-12-22T07:49:05.206Z,1.44
2022-12-22T07:50:03.771Z,1.48
2022-12-22T07:51:03.607Z,1.92
2022-12-22T07:52:04.295Z,1.34
2022-12-22T07:53:03.811Z,1.04
2022-12-22T07:54:02.428Z,1.94
2022-12-22T07:55:04.439Z,1.64
2022-12-22T07:56:03.846Z,1.44
2022-12-22T07:57:04.308Z,0.93
2022-12-22T07:58:04.062Z,1.74
2022-12-22T07:59:03.704Z,0.99
2022-12-22T08:00:03.707Z,1.17
2022-12-22T08:01:03.613Z,2.69
2022-12-22T08:02:04.700Z,1.31
2022-12-22T08:03:04.069Z,1.34
2022-12-22T08:04:04.351Z,1.25
2022-12-22T08:05:03.962Z,0.86
2022-12-22T08:06:03.374Z,1.27
2022-12-22T08:07:02.527Z,1.18
2022-12-22T08:08:03.999Z,1.25
2022-12-22T08:09:03.471Z,1.53
2022-12-22T08:10:04.183Z,0.96
2022-12-22T08:11:03.536Z,1.06
2022-12-22T08:12:04.111Z,1.17
2022-12-22T08:13:03.892Z,1.26
2022-12-22T08:14:04.593Z,1.62
2022-12-22T08:15:03.669Z,1.28
2022-12-22T08:16:04.145Z,0.99
2022-12-22T08:17:04.182Z,1.94
2022-12-22T08:18:03.675Z,1.36
2022-12-22T08:19:04.430Z,1.18
2022-12-22T08:20:03.635Z,1.48
2022-12-22T08:21:03.361Z,1.34
2022-12-22T08:22:03.770Z,0.85
2022-12-22T08:23:04.277Z,0.89
2022-12-22T08:24:04.045Z,1.09
2022-12-22T08:25:03.565Z,1.12
2022-12-22T08:26:04.000Z,1.12
2022-12-22T08:27:04.525Z,1.19
2022-12-22T08:28:03.926Z,1.76
2022-12-22T08:29:04.586Z,1.76
2022-12-22T08:30:03.686Z,1.05
2022-12-22T08:31:04.155Z,0.74
2022-12-22T08:33:03.939Z,1.09
2022-12-22T08:34:03.527Z,1.09
2022-12-22T08:36:10.152Z,1.25
2022-12-22T08:37:04.427Z,1.05
2022-12-22T08:38:03.891Z,1.16
2022-12-22T08:39:03.898Z,1.16
2022-12-22T08:42:03.733Z,0.58
2022-12-22T08:43:04.367Z,0.72
2022-12-22T08:44:03.899Z,0.89
2022-12-22T08:45:04.445Z,0.85
2022-12-22T08:47:04.389Z,0.74
2022-12-22T08:48:04.174Z,1.47
2022-12-22T08:49:03.808Z,0.85
2022-12-22T08:50:04.113Z,1.34
2022-12-22T08:51:04.137Z,1.54
2022-12-22T08:52:03.844Z,1.15
2022-12-22T08:53:04.055Z,1.28
2022-12-22T08:54:07.666Z,0.73
2022-12-22T08:55:04.090Z,0.63
2022-12-22T08:56:03.586Z,1.05
2022-12-22T08:57:04.074Z,1.35
2022-12-22T08:58:04.086Z,0.78
2022-12-22T08:59:03.699Z,0.78
2022-12-22T09:00:02.973Z,0.85
2022-12-22T09:01:03.706Z,1.31
2022-12-22T09:02:04.379Z,0.84
2022-12-22T09:03:04.300Z,0.98
2022-12-22T09:04:03.675Z,1.06
2022-12-22T09:05:04.290Z,0.87
2022-12-22T09:06:03.844Z,1.04
2022-12-22T09:07:04.307Z,1.18
2022-12-22T09:08:03.952Z,0.81
2022-12-22T09:09:03.622Z,0.94
2022-12-22T09:10:04.069Z,1.38
2022-12-22T09:11:03.537Z,0.72
2022-12-22T09:12:04.396Z,0.79
2022-12-22T09:13:03.903Z,0.84
2022-12-22T09:14:03.914Z,1.11
2022-12-22T09:15:04.372Z,1.11
2022-12-22T09:16:03.596Z,1.1
2022-12-22T09:17:03.148Z,0.94
2022-12-22T09:18:03.482Z,1.61
2022-12-22T09:19:04.104Z,0.77
2022-12-22T09:20:03.516Z,0.55
2022-12-22T09:21:04.062Z,0.55
2022-12-22T09:22:03.781Z,1.16
2022-12-22T09:23:04.234Z,0.93
2022-12-22T09:24:03.964Z,0.51
2022-12-22T09:25:04.371Z,0.88
2022-12-22T09:26:03.843Z,1.04
2022-12-22T09:27:03.512Z,0.59
2022-12-22T09:28:04.070Z,0.65
2022-12-22T09:29:03.636Z,0.75
2022-12-22T09:30:04.206Z,0.54
2022-12-22T09:31:03.687Z,0.61
2022-12-22T09:32:04.431Z,0.81
2022-12-22T09:33:03.950Z,0.46
2022-12-22T09:34:04.390Z,0.64
2022-12-22T09:35:03.738Z,0.99
2022-12-22T09:36:04.239Z,0.56
2022-12-22T09:37:03.817Z,0.59
2022-12-22T09:38:04.413Z,0.81
2022-12-22T09:39:04.438Z,0.59
2022-12-22T09:40:04.008Z,0.48
2022-12-22T09:41:03.464Z,0.54
2022-12-22T09:42:03.981Z,0.86
2022-12-22T09:43:04.255Z,0.83
2022-12-22T09:44:03.458Z,0.51
2022-12-22T09:45:03.890Z,0.26
2022-12-22T09:46:04.500Z,0.51
2022-12-22T09:47:04.290Z,0.51
2022-12-22T09:48:03.825Z,0.65
2022-12-22T09:49:03.454Z,0.41
2022-12-22T09:50:03.916Z,0.79
2022-12-22T09:51:04.457Z,0.56
2022-12-22T09:52:04.032Z,1.26
2022-12-22T09:53:04.417Z,0.4
2022-12-22T09:54:04.016Z,0.81
2022-12-22T09:55:04.359Z,0.4
2022-12-22T09:56:03.947Z,0.58
2022-12-22T09:57:04.359Z,0.68
2022-12-22T09:58:04.022Z,0.5
2022-12-22T09:59:04.034Z,0.95
2022-12-22T10:00:03.406Z,0.47
2022-12-22T10:01:03.674Z,0.64
2022-12-22T10:02:04.537Z,0.66
2022-12-22T10:03:04.530Z,1.16
2022-12-22T10:04:03.752Z,0.86
2022-12-22T10:05:04.250Z,1.05
2022-12-22T10:06:03.778Z,1.05
2022-12-22T10:07:04.235Z,0.59
2022-12-22T10:08:03.914Z,0.59
2022-12-22T10:09:05.050Z,0.59
2022-12-22T10:10:04.285Z,0.66
2022-12-22T10:11:02.538Z,1.13
2022-12-22T10:12:04.117Z,0.96
2022-12-22T10:13:04.273Z,0.41
2022-12-22T10:14:04.450Z,0.63
2022-12-22T10:15:03.530Z,0.56
2022-12-22T10:16:03.674Z,0.58
2022-12-22T10:17:04.405Z,0.99
2022-12-22T10:18:03.702Z,0.33
2022-12-22T10:19:04.463Z,0.92
2022-12-22T10:20:03.857Z,0.46
2022-12-22T10:21:04.300Z,0.29
2022-12-22T10:22:03.990Z,0.49
2022-12-22T10:23:04.245Z,0.61
2022-12-22T10:24:04.583Z,0.49
2022-12-22T10:25:04.050Z,0.49
2022-12-22T10:26:31.621Z,0.49
2022-12-22T10:27:02.969Z,0.95
2022-12-22T10:28:03.533Z,0.49
2022-12-22T10:29:04.057Z,0.42
2022-12-22T10:30:03.593Z,0.42
2022-12-22T10:31:04.201Z,0.35
2022-12-22T10:32:03.731Z,0.92
2022-12-22T10:33:04.142Z,0.39
2022-12-22T10:34:03.535Z,0.38
2022-12-22T10:35:04.068Z,0.77
2022-12-22T10:36:03.588Z,0.89
2022-12-22T10:37:04.109Z,0.72
2022-12-22T10:38:03.629Z,0.35
2022-12-22T10:39:03.943Z,0.55
2022-12-22T10:40:03.207Z,0.38
2022-12-22T10:41:04.852Z,0.36
2022-12-22T10:42:04.076Z,0.56
2022-12-22T10:43:04.009Z,0.5
2022-12-22T10:44:04.425Z,0.56
2022-12-22T10:45:03.919Z,1.3
2022-12-22T10:46:04.602Z,0.44
2022-12-22T10:47:03.768Z,0.45
2022-12-22T10:48:04.398Z,0.92
2022-12-22T10:49:03.900Z,0.76
2022-12-22T10:50:03.418Z,0.72
2022-12-22T10:51:03.930Z,0.68
2022-12-22T10:52:03.634Z,0.79
2022-12-22T10:53:04.191Z,0.93
2022-12-22T10:54:04.015Z,0.41
2022-12-22T10:55:04.429Z,1.04
2022-12-22T10:56:03.861Z,0.74
2022-12-22T10:57:03.139Z,0.74
2022-12-22T10:58:07.709Z,0.47
2022-12-22T10:59:03.899Z,0.85
2022-12-22T11:00:04.573Z,0.91
2022-12-22T11:01:04.033Z,0.59
2022-12-22T11:02:03.976Z,0.79
2022-12-22T11:03:04.273Z,0.43
2022-12-22T11:04:04.528Z,0.38
2022-12-22T11:05:03.910Z,0.46
2022-12-22T11:06:03.623Z,0.4
2022-12-22T11:07:04.144Z,0.78
2022-12-22T11:08:04.565Z,0.64
2022-12-22T11:09:35.226Z,0.75
2022-12-22T11:10:03.607Z,0.58
2022-12-22T11:11:04.204Z,0.98
2022-12-22T11:12:03.312Z,0.63
2022-12-22T11:13:04.380Z,0.66
2022-12-22T11:14:03.525Z,0.47
2022-12-22T11:15:03.974Z,0.64
2022-12-22T11:16:03.677Z,0.56
2022-12-22T11:17:04.148Z,0.48
2022-12-22T11:18:03.858Z,0.64
2022-12-22T11:19:04.434Z,0.79
2022-12-22T11:20:03.945Z,2.38
2022-12-22T11:21:04.447Z,0.48
2022-12-22T11:22:03.994Z,0.5
2022-12-22T11:23:03.642Z,0.39
2022-12-22T11:24:04.031Z,0.67
2022-12-22T11:25:03.744Z,0.58
2022-12-22T11:26:03.060Z,1.15
2022-12-22T11:27:03.836Z,1.12
2022-12-22T11:28:04.535Z,0.82
2022-12-22T11:29:03.670Z,0.85
2022-12-22T11:30:04.597Z,0.66
2022-12-22T11:31:03.922Z,0.68
2022-12-22T11:32:04.129Z,0.49
2022-12-22T11:33:04.638Z,0.41
2022-12-22T11:34:03.969Z,0.48
2022-12-22T11:35:03.565Z,0.64
2022-12-22T11:36:04.120Z,1.04
2022-12-22T11:37:03.687Z,0.67
2022-12-22T11:38:03.886Z,0.94
2022-12-22T11:39:04.364Z,0.74
2022-12-22T11:40:03.716Z,0.43
2022-12-22T11:41:02.912Z,1.09
2022-12-22T11:42:04.116Z,0.53
2022-12-22T11:43:03.765Z,0.51
2022-12-22T11:44:03.737Z,0.62
2022-12-22T11:45:03.762Z,0.69
2022-12-22T11:46:04.256Z,0.69
2022-12-22T11:47:03.657Z,0.62
2022-12-22T11:48:04.232Z,0.88
2022-12-22T11:49:03.844Z,0.88
2022-12-22T11:51:09.993Z,0.52
2022-12-22T11:51:17.780Z,0.68
2022-12-22T11:52:04.386Z,0.81
2022-12-22T11:53:03.649Z,0.49
2022-12-22T11:54:12.477Z,1.35
2022-12-22T11:55:04.045Z,0.77
2022-12-22T11:56:03.328Z,1.18
2022-12-22T11:57:02.678Z,0.51
2022-12-22T11:58:04.286Z,0.49
2022-12-22T11:59:03.789Z,0.61
2022-12-22T12:00:03.633Z,0.46
2022-12-22T12:01:25.532Z,0.57
2022-12-22T12:02:04.406Z,0.39
2022-12-22T12:03:04.031Z,0.72
2022-12-22T12:04:04.580Z,0.85
2022-12-22T12:05:04.121Z,0.52
2022-12-22T12:06:03.690Z,0.54
2022-12-22T12:07:04.172Z,0.74
2022-12-22T12:08:03.646Z,0.55
2022-12-22T12:09:04.246Z,0.34
2022-12-22T12:10:03.901Z,0.39
2022-12-22T12:11:04.285Z,0.68
2022-12-22T12:12:03.716Z,0.64
2022-12-22T12:13:04.296Z,1.16
2022-12-22T12:14:03.861Z,0.39
2022-12-22T12:15:04.507Z,0.51
2022-12-22T12:16:04.231Z,0.4
2022-12-22T12:17:03.730Z,0.81
2022-12-22T12:18:04.316Z,0.38
2022-12-22T12:19:03.737Z,0.31
2022-12-22T12:20:03.940Z,0.37
2022-12-22T12:21:03.499Z,0.42
2022-12-22T12:22:04.034Z,0.55
2022-12-22T12:23:04.667Z,0.3
2022-12-22T12:24:03.366Z,0.22
2022-12-22T12:25:02.831Z,0.31
2022-12-22T12:26:04.357Z,0.52
2022-12-22T12:27:04.255Z,0.29
2022-12-22T12:28:03.822Z,0.31
2022-12-22T12:29:04.417Z,0.29
2022-12-22T12:30:39.408Z,0.74
2022-12-22T12:31:04.494Z,0.29
2022-12-22T12:32:04.354Z,0.49
2022-12-22T12:33:04.463Z,0.42
2022-12-22T12:34:03.945Z,0.49
2022-12-22T12:35:04.323Z,0.39
2022-12-22T12:36:04.002Z,0.55
2022-12-22T12:37:03.507Z,0.55
2022-12-22T12:38:03.387Z,0.89
2022-12-22T12:39:11.952Z,1.28
2022-12-22T12:40:04.027Z,1.28
2022-12-22T12:41:03.557Z,0.59
2022-12-22T12:42:03.763Z,0.77
2022-12-22T12:43:04.172Z,0.83
2022-12-22T12:44:03.817Z,2.92
2022-12-22T12:45:03.856Z,1.08
2022-12-22T12:46:04.778Z,1.22
2022-12-22T12:47:04.007Z,1.34
2022-12-22T12:48:03.503Z,1.01
2022-12-22T12:49:04.039Z,0.61
2022-12-22T12:50:03.505Z,0.74
2022-12-22T12:51:04.041Z,0.96
2022-12-22T12:52:02.536Z,0.79
2022-12-22T12:53:04.002Z,0.92
2022-12-22T12:54:03.819Z,0.75
2022-12-22T12:55:04.299Z,0.7
2022-12-22T12:56:03.784Z,0.8
2022-12-22T12:57:04.166Z,1.11
2022-12-22T12:58:04.217Z,1.02
2022-12-22T12:59:03.676Z,0.78
2022-12-22T13:00:04.192Z,1.01
2022-12-22T13:01:03.650Z,1.54
2022-12-22T13:02:04.668Z,1.18
2022-12-22T13:03:04.210Z,0.79
2022-12-22T13:04:06.470Z,0.85
2022-12-22T13:05:03.633Z,1.41
2022-12-22T13:06:04.265Z,0.91
2022-12-22T13:07:04.312Z,0.74
2022-12-22T13:08:03.906Z,0.75
2022-12-22T13:09:51.365Z,0.91
2022-12-22T13:11:04.113Z,0.65
2022-12-22T13:12:18.343Z,0.95
2022-12-22T13:13:03.761Z,1.07
2022-12-22T13:14:04.349Z,0.76
2022-12-22T13:15:04.182Z,0.58
2022-12-22T13:16:04.289Z,0.79
2022-12-22T13:17:03.803Z,1.63
2022-12-22T13:18:04.680Z,0.86
2022-12-22T13:19:03.998Z,0.99
2022-12-22T13:20:03.688Z,0.67
2022-12-22T13:21:53.773Z,0.79
2022-12-22T13:22:03.606Z,1.34
2022-12-22T13:23:03.788Z,1.44
2022-12-22T13:24:34.479Z,1.56
2022-12-22T13:25:03.905Z,2.97
2022-12-22T13:26:04.331Z,2.24
2022-12-22T13:27:03.970Z,2.24
2022-12-22T13:28:04.372Z,1.48
2022-12-22T13:29:04.194Z,1.15
2022-12-22T13:30:06.768Z,1.31
2022-12-22T13:31:04.346Z,1.56
2022-12-22T13:32:04.074Z,1.13
2022-12-22T13:33:04.321Z,1.16
2022-12-22T13:34:03.720Z,0.74
2022-12-22T13:35:34.948Z,1.1
2022-12-22T13:36:03.819Z,1.18
2022-12-22T13:37:04.300Z,1.16
2022-12-22T13:38:03.921Z,1.65
2022-12-22T13:39:04.523Z,1.15
2022-12-22T13:40:04.091Z,1.02
2022-12-22T13:41:03.359Z,1.95
2022-12-22T13:42:04.058Z,1.83
2022-12-22T13:43:04.381Z,1.07
2022-12-22T13:44:03.986Z,1.44
2022-12-22T13:45:04.215Z,1.19
2022-12-22T13:46:04.021Z,1.51
2022-12-22T13:47:04.378Z,1.27
2022-12-22T13:48:03.623Z,1.46
2022-12-22T13:49:04.255Z,1.52
2022-12-22T13:50:12.338Z,1.02
2022-12-22T13:51:04.414Z,0.89
2022-12-22T13:52:07.447Z,1.34
2022-12-22T13:53:03.900Z,1.55
2022-12-22T13:54:13.053Z,1.45
2022-12-22T13:55:04.127Z,1.26
2022-12-22T13:56:03.619Z,1.08
2022-12-22T13:57:04.279Z,0.94
2022-12-22T13:58:03.697Z,1.59
2022-12-22T13:59:03.952Z,2.03
2022-12-22T14:00:03.177Z,1.65
2022-12-22T14:01:04.132Z,0.95
2022-12-22T14:02:03.817Z,1.32
2022-12-22T14:03:04.482Z,1.41
2022-12-22T14:04:05.413Z,2.28
2022-12-22T14:05:05.878Z,1.11
2022-12-22T14:06:03.767Z,0.79
2022-12-22T14:07:03.471Z,1.64
2022-12-22T14:08:04.037Z,1.2
2022-12-22T14:09:04.457Z,1.6
2022-12-22T14:10:04.003Z,1.77
2022-12-22T14:11:03.524Z,1.44
2022-12-22T14:12:04.045Z,2.07
2022-12-22T14:13:03.615Z,1.45
2022-12-22T14:14:04.231Z,1.32
2022-12-22T14:15:03.722Z,0.78
2022-12-22T14:16:04.124Z,0.81
2022-12-22T14:17:03.300Z,1.09